Flight Track Log - Related Links

Times and Time Zones

All times are in EDT time to prevent confusion due to time zone crossing. See the DAL6201 flight status page for this flight to view local times or setup timezone preferences in your user account.

Time Position Orientation Groundspeed Altitude Reporting Facility
EDT Latitude Longitude Course Direction KTS MPH feet Rate Location/Type
Fri 07:10:12 PM 40.5114 -80.2878 80° East 178 205 2,600  Level Cleveland Center
Fri 07:11:15 PM 40.5558 -80.2550 29° Northeast 235 270 4,700 2,112 Climbing Cleveland Center
Fri 07:12:17 PM 40.5647 -80.1494 84° East 262 302 7,000 2,468 Climbing Cleveland Center
Fri 07:13:19 PM 40.5756 -80.0439 82° East 291 335 9,800 2,177 Climbing Cleveland Center
Fri 07:14:21 PM 40.5864 -79.9386 82° East 315 362 11,500 1,887 Climbing Cleveland Center
Fri 07:15:00 PM 40.5462 -79.4405 80° East  Level Estimated
Fri 07:15:23 PM 40.6014 -79.7811 83° East 358 412 13,700  Level Cleveland Center
Fri 07:16:25 PM 40.6153 -79.6422 82° East 379 436 15,600 1,887 Climbing Cleveland Center
Fri 07:17:27 PM 40.6289 -79.5003 83° East 389 448 17,600 1,790 Climbing Cleveland Center
Fri 07:18:29 PM 40.6419 -79.3558 83° East 398 458 19,300 1,355 Climbing Cleveland Center
Fri 07:19:31 PM 40.6564 -79.2072 83° East 408 470 20,400 1,065 Climbing Cleveland Center
Fri 07:20:33 PM 40.6697 -79.0508 84° East 424 488 21,500 1,452 Climbing Cleveland Center
Fri 07:21:35 PM 40.7378 -78.9006 59° Northeast 429 494 23,400 1,548 Climbing Cleveland Center
Fri 07:22:37 PM 40.8547 -78.9094 357° North 427 491 24,700 1,258 Climbing Cleveland Center
Fri 07:23:39 PM 40.9750 -78.9372 350° North 436 502 26,000 1,403 Climbing Cleveland Center
Fri 07:24:41 PM 41.0881 -78.9378 360° North 425 489 27,600 1,161 Climbing Cleveland Center
Fri 07:25:43 PM 41.1625 -78.8225 49° Northeast 424 488 28,400 629 Climbing Cleveland Center
Fri 07:26:45 PM 41.1758 -78.6619 84° East 438 504 28,900 290 Climbing Cleveland Center
Fri 07:27:47 PM 41.1911 -78.4569 84° East 466 536 29,000 53 Climbing Cleveland Center
Fri 07:28:38 PM 41.1992 -78.3328 85° East 451 519 29,000  Level New York Center
Fri 07:29:36 PM 41.2122 -78.1603 84° East 459 528 29,000  Level New York Center
Fri 07:30:37 PM 41.1975 -77.9931 97° East 459 528 29,000  Level New York Center
Fri 07:31:38 PM 41.1739 -77.8308 101° East 459 528 29,000  Level New York Center
Fri 07:32:37 PM 41.1544 -77.6661 99° East 454 522 29,000 -655 Level New York Center
Fri 07:33:37 PM 41.1344 -77.5069 99° East 449 517 27,700 -1,438 Descending New York Center
Fri 07:34:38 PM 41.1139 -77.3533 100° East 438 504 26,100 -1,412 Descending New York Center
Fri 07:35:36 PM 41.0933 -77.1944 100° East 432 497 24,900 -1,220 Descending New York Center
Fri 07:36:36 PM 41.0725 -77.0383 100° East 432 497 23,700 -1,190 Descending New York Center
Fri 07:37:37 PM 41.0514 -76.8850 100° East 432 497 22,500 -1,180 Descending New York Center
Fri 07:38:38 PM 41.0300 -76.7344 101° East 427 491 21,300 -1,210 Descending New York Center
Fri 07:39:36 PM 41.0036 -76.5947 104° East 407 468 20,100 -1,210 Descending New York Center
Fri 07:40:37 PM 40.9728 -76.4572 107° East 395 455 18,900 -1,024 Descending New York Center
Fri 07:41:39 PM 40.9361 -76.3058 108° East 390 449 18,000 -504 Descending New York Center
Fri 07:42:36 PM 40.9031 -76.1658 107° East 390 449 17,900 -857 Descending New York Center
Fri 07:43:38 PM 40.8750 -76.0456 107° East 390 449 16,300 -1,721 Descending New York Center
Fri 07:44:38 PM 40.8375 -75.9028 109° East 384 442 14,400 -1,627 Descending New York Center
Fri 07:45:36 PM 40.8078 -75.7744 107° East 378 435 13,100 -712 Descending New York Center
Fri 07:46:36 PM 40.7769 -75.6600 110° East 373 429 13,000 -49 Descending New York Center
Fri 07:47:38 PM 40.7489 -75.5344 106° East 368 423 13,000 -197 Level New York Center
Fri 07:48:38 PM 40.7186 -75.4064 107° East 368 423 12,600 -712 Descending New York Center
Fri 07:49:36 PM 40.6922 -75.2789 105° East 368 423 11,600 -1,017 Descending New York Center
Fri 07:50:36 PM 40.6636 -75.1539 107° East 368 423 10,600 -793 Descending New York Center
Fri 07:51:37 PM 40.5947 -75.0456 130° Southeast 352 405 10,000 -295 Descending New York Center
Fri 07:52:38 PM 40.5483 -74.9444 121° Southeast 348 400 10,000  Level New York Center
Fri 07:53:37 PM 40.5206 -74.8417 110° East 308 354 10,000  Level New York Center
Fri 07:54:37 PM 40.4922 -74.7553 113° Southeast 295 339 10,000  Level New York Center
Fri 07:55:36 PM 40.4622 -74.6553 111° Southeast 295 339 10,000 -400 Level New York Center
Fri 07:56:37 PM 40.4361 -74.5586 110° East 295 339 9,200 -1,239 Descending New York Center
Fri 07:57:08 PM 40.4167 -74.4833 109° East 282 325 8,100 -398 Descending New York TRACON
Fri 07:59:38 PM 40.4578 -74.2650 76° East 271 312 8,000 -258 Descending New York Center
Fri 08:00:37 PM 40.4975 -74.1881 56° Northeast 287 330 7,200 -1,200 Descending New York Center
Fri 08:01:08 PM 40.5333 -74.1333 49° Northeast 282 325 6,200 -1,272 Descending New York TRACON
Fri 08:03:08 PM 40.6500 -74.0500 28° Northeast 267 307 4,000 -733 Descending New York TRACON
Fri 08:04:08 PM 40.7333 -74.0167 17° North 276 318 4,000  Level New York TRACON
Fri 08:05:08 PM 40.8000 -73.9833 21° North 275 316 4,000  Level New York TRACON
Fri 08:06:08 PM 40.8500 -73.9333 37° Northeast 225 259 4,000  Level New York TRACON
Fri 08:07:08 PM 40.9000 -73.9000 27° Northeast 202 232 4,000  Level New York TRACON
Fri 08:08:08 PM 40.9500 -73.8500 37° Northeast 202 232 4,000 -700 Level New York TRACON
Fri 08:10:08 PM 40.9000 -73.7833 135° Southeast 148 170 1,900 -675 Descending New York TRACON
Fri 08:12:08 PM 40.8333 -73.8333 210° Southwest 127 146 1,300 -300 Descending New York TRACON
Fri 08:14:00 PM 40.7772 -73.8726 205° Southwest  Level Estimated
Fri 08:21:00 PM 40.7772 -73.8726 205° Southwest  Level Estimated
Fri 08:22:00 PM 40.7772 -73.8726 205° Southwest  Level Estimated

Login

Don't have an account? Register now (free) for customized features, flight alerts, and more!